sensor_id;sensor_type;location;lat;lon;timestamp;P1;durP1;ratioP1;P2;durP2;ratioP2
78563;SDS011;67856;47.754;19.088;2023-07-09T00:01:51;2.05;;;1.40;;
78563;SDS011;67856;47.754;19.088;2023-07-09T00:04:53;1.65;;;1.45;;
78563;SDS011;67856;47.754;19.088;2023-07-09T00:07:56;1.60;;;1.43;;
78563;SDS011;67856;47.754;19.088;2023-07-09T00:10:58;2.60;;;1.42;;
78563;SDS011;67856;47.754;19.088;2023-07-09T00:14:01;1.73;;;1.50;;
78563;SDS011;67856;47.754;19.088;2023-07-09T00:17:07;2.03;;;1.52;;
78563;SDS011;67856;47.754;19.088;2023-07-09T00:20:15;1.73;;;1.60;;
78563;SDS011;67856;47.754;19.088;2023-07-09T00:23:19;2.13;;;1.77;;
78563;SDS011;67856;47.754;19.088;2023-07-09T00:26:22;1.50;;;1.40;;
78563;SDS011;67856;47.754;19.088;2023-07-09T00:29:25;1.77;;;1.38;;
78563;SDS011;67856;47.754;19.088;2023-07-09T00:32:28;1.55;;;1.45;;
78563;SDS011;67856;47.754;19.088;2023-07-09T00:35:30;1.75;;;1.52;;
78563;SDS011;67856;47.754;19.088;2023-07-09T00:38:33;1.47;;;1.37;;
78563;SDS011;67856;47.754;19.088;2023-07-09T00:41:41;1.50;;;1.30;;
78563;SDS011;67856;47.754;19.088;2023-07-09T00:44:50;1.60;;;1.40;;
78563;SDS011;67856;47.754;19.088;2023-07-09T00:48:04;1.63;;;1.40;;
78563;SDS011;67856;47.754;19.088;2023-07-09T00:51:13;1.80;;;1.60;;
78563;SDS011;67856;47.754;19.088;2023-07-09T00:54:26;1.70;;;1.60;;
78563;SDS011;67856;47.754;19.088;2023-07-09T00:57:32;2.25;;;1.42;;
78563;SDS011;67856;47.754;19.088;2023-07-09T01:00:42;1.40;;;1.30;;
78563;SDS011;67856;47.754;19.088;2023-07-09T01:03:51;2.20;;;1.80;;
78563;SDS011;67856;47.754;19.088;2023-07-09T01:06:58;1.90;;;1.63;;
78563;SDS011;67856;47.754;19.088;2023-07-09T01:10:01;1.93;;;1.50;;
78563;SDS011;67856;47.754;19.088;2023-07-09T01:13:04;1.75;;;1.50;;
78563;SDS011;67856;47.754;19.088;2023-07-09T01:16:06;1.65;;;1.55;;
78563;SDS011;67856;47.754;19.088;2023-07-09T01:19:09;1.98;;;1.30;;
78563;SDS011;67856;47.754;19.088;2023-07-09T01:22:13;2.67;;;1.60;;
78563;SDS011;67856;47.754;19.088;2023-07-09T01:25:17;1.50;;;1.40;;
78563;SDS011;67856;47.754;19.088;2023-07-09T01:28:20;1.90;;;1.58;;
78563;SDS011;67856;47.754;19.088;2023-07-09T01:31:23;1.70;;;1.50;;
78563;SDS011;67856;47.754;19.088;2023-07-09T01:34:25;1.90;;;1.35;;
78563;SDS011;67856;47.754;19.088;2023-07-09T01:37:28;2.58;;;1.83;;
78563;SDS011;67856;47.754;19.088;2023-07-09T01:40:30;1.50;;;1.40;;
78563;SDS011;67856;47.754;19.088;2023-07-09T01:43:36;1.98;;;1.52;;
78563;SDS011;67856;47.754;19.088;2023-07-09T01:46:39;1.90;;;1.70;;
78563;SDS011;67856;47.754;19.088;2023-07-09T01:49:41;1.60;;;1.30;;
78563;SDS011;67856;47.754;19.088;2023-07-09T01:52:44;1.80;;;1.50;;
78563;SDS011;67856;47.754;19.088;2023-07-09T01:55:47;1.73;;;1.53;;
78563;SDS011;67856;47.754;19.088;2023-07-09T01:58:50;1.52;;;1.42;;
78563;SDS011;67856;47.754;19.088;2023-07-09T02:01:54;1.60;;;1.40;;
78563;SDS011;67856;47.754;19.088;2023-07-09T02:04:59;1.55;;;1.38;;
78563;SDS011;67856;47.754;19.088;2023-07-09T02:08:03;2.00;;;1.80;;
78563;SDS011;67856;47.754;19.088;2023-07-09T02:11:06;1.70;;;1.40;;
78563;SDS011;67856;47.754;19.088;2023-07-09T02:14:08;1.75;;;1.50;;
78563;SDS011;67856;47.754;19.088;2023-07-09T02:17:11;2.90;;;1.55;;
78563;SDS011;67856;47.754;19.088;2023-07-09T02:20:15;1.65;;;1.50;;
78563;SDS011;67856;47.754;19.088;2023-07-09T02:23:17;1.95;;;1.65;;
78563;SDS011;67856;47.754;19.088;2023-07-09T02:26:20;1.47;;;1.37;;
78563;SDS011;67856;47.754;19.088;2023-07-09T02:29:23;1.63;;;1.45;;
78563;SDS011;67856;47.754;19.088;2023-07-09T02:32:26;1.98;;;1.70;;
78563;SDS011;67856;47.754;19.088;2023-07-09T02:35:29;1.75;;;1.65;;
78563;SDS011;67856;47.754;19.088;2023-07-09T02:38:35;1.95;;;1.70;;
78563;SDS011;67856;47.754;19.088;2023-07-09T02:41:38;1.93;;;1.57;;
78563;SDS011;67856;47.754;19.088;2023-07-09T02:44:42;1.73;;;1.63;;
78563;SDS011;67856;47.754;19.088;2023-07-09T02:47:46;2.00;;;1.80;;
78563;SDS011;67856;47.754;19.088;2023-07-09T02:50:50;1.45;;;1.20;;
78563;SDS011;67856;47.754;19.088;2023-07-09T02:53:56;1.67;;;1.50;;
78563;SDS011;67856;47.754;19.088;2023-07-09T02:57:00;1.83;;;1.50;;
78563;SDS011;67856;47.754;19.088;2023-07-09T03:00:02;2.13;;;1.92;;
78563;SDS011;67856;47.754;19.088;2023-07-09T03:03:07;2.40;;;1.73;;
78563;SDS011;67856;47.754;19.088;2023-07-09T03:06:10;1.70;;;1.55;;
78563;SDS011;67856;47.754;19.088;2023-07-09T03:09:12;1.88;;;1.67;;
78563;SDS011;67856;47.754;19.088;2023-07-09T03:12:15;1.70;;;1.60;;
78563;SDS011;67856;47.754;19.088;2023-07-09T03:15:17;1.90;;;1.58;;
78563;SDS011;67856;47.754;19.088;2023-07-09T03:18:20;1.90;;;1.70;;
78563;SDS011;67856;47.754;19.088;2023-07-09T03:21:23;1.85;;;1.50;;
78563;SDS011;67856;47.754;19.088;2023-07-09T03:24:27;1.88;;;1.70;;
78563;SDS011;67856;47.754;19.088;2023-07-09T03:27:30;2.20;;;1.80;;
78563;SDS011;67856;47.754;19.088;2023-07-09T03:30:32;1.90;;;1.70;;
78563;SDS011;67856;47.754;19.088;2023-07-09T03:33:35;2.28;;;1.90;;
78563;SDS011;67856;47.754;19.088;2023-07-09T03:36:37;2.00;;;1.80;;
78563;SDS011;67856;47.754;19.088;2023-07-09T03:39:40;1.95;;;1.50;;
78563;SDS011;67856;47.754;19.088;2023-07-09T03:42:42;2.37;;;2.00;;
78563;SDS011;67856;47.754;19.088;2023-07-09T03:45:45;2.95;;;1.98;;
78563;SDS011;67856;47.754;19.088;2023-07-09T03:48:48;2.08;;;1.80;;
78563;SDS011;67856;47.754;19.088;2023-07-09T03:51:55;2.42;;;1.98;;
78563;SDS011;67856;47.754;19.088;2023-07-09T03:54:58;1.63;;;1.50;;
78563;SDS011;67856;47.754;19.088;2023-07-09T03:58:02;2.17;;;1.77;;
78563;SDS011;67856;47.754;19.088;2023-07-09T04:01:05;1.90;;;1.70;;
78563;SDS011;67856;47.754;19.088;2023-07-09T04:04:07;1.80;;;1.58;;
78563;SDS011;67856;47.754;19.088;2023-07-09T04:07:10;1.77;;;1.65;;
78563;SDS011;67856;47.754;19.088;2023-07-09T04:10:13;1.67;;;1.38;;
78563;SDS011;67856;47.754;19.088;2023-07-09T04:13:15;2.47;;;1.47;;
78563;SDS011;67856;47.754;19.088;2023-07-09T04:16:18;2.58;;;1.58;;
78563;SDS011;67856;47.754;19.088;2023-07-09T04:19:20;2.00;;;1.83;;
78563;SDS011;67856;47.754;19.088;2023-07-09T04:22:23;1.60;;;1.50;;
78563;SDS011;67856;47.754;19.088;2023-07-09T04:25:25;2.20;;;1.60;;
78563;SDS011;67856;47.754;19.088;2023-07-09T04:28:28;2.80;;;1.60;;
78563;SDS011;67856;47.754;19.088;2023-07-09T04:31:32;1.42;;;1.33;;
78563;SDS011;67856;47.754;19.088;2023-07-09T04:34:34;1.88;;;1.55;;
78563;SDS011;67856;47.754;19.088;2023-07-09T04:37:37;1.63;;;1.30;;
78563;SDS011;67856;47.754;19.088;2023-07-09T04:40:40;1.60;;;1.40;;
78563;SDS011;67856;47.754;19.088;2023-07-09T04:43:43;1.43;;;1.33;;
78563;SDS011;67856;47.754;19.088;2023-07-09T04:46:45;1.42;;;1.30;;
78563;SDS011;67856;47.754;19.088;2023-07-09T04:49:47;1.55;;;1.30;;
78563;SDS011;67856;47.754;19.088;2023-07-09T04:52:50;1.30;;;1.17;;
78563;SDS011;67856;47.754;19.088;2023-07-09T04:55:54;1.63;;;1.50;;
78563;SDS011;67856;47.754;19.088;2023-07-09T04:58:58;1.37;;;1.20;;
78563;SDS011;67856;47.754;19.088;2023-07-09T05:02:01;1.23;;;1.13;;
78563;SDS011;67856;47.754;19.088;2023-07-09T05:05:03;1.80;;;1.40;;
78563;SDS011;67856;47.754;19.088;2023-07-09T05:08:07;1.35;;;1.20;;
78563;SDS011;67856;47.754;19.088;2023-07-09T05:11:09;1.35;;;1.25;;
78563;SDS011;67856;47.754;19.088;2023-07-09T05:14:15;1.40;;;1.20;;
78563;SDS011;67856;47.754;19.088;2023-07-09T05:17:17;1.30;;;1.20;;
78563;SDS011;67856;47.754;19.088;2023-07-09T05:20:19;1.30;;;1.20;;
78563;SDS011;67856;47.754;19.088;2023-07-09T05:23:26;1.38;;;1.20;;
78563;SDS011;67856;47.754;19.088;2023-07-09T05:26:29;1.35;;;1.20;;
78563;SDS011;67856;47.754;19.088;2023-07-09T05:29:31;1.43;;;1.20;;
78563;SDS011;67856;47.754;19.088;2023-07-09T05:32:33;1.30;;;1.20;;
78563;SDS011;67856;47.754;19.088;2023-07-09T05:35:37;1.30;;;1.20;;
78563;SDS011;67856;47.754;19.088;2023-07-09T05:38:39;1.35;;;1.25;;
78563;SDS011;67856;47.754;19.088;2023-07-09T05:41:41;1.52;;;1.40;;
78563;SDS011;67856;47.754;19.088;2023-07-09T05:44:44;1.27;;;1.03;;
78563;SDS011;67856;47.754;19.088;2023-07-09T05:47:46;1.75;;;1.30;;
78563;SDS011;67856;47.754;19.088;2023-07-09T05:50:52;1.13;;;1.00;;
78563;SDS011;67856;47.754;19.088;2023-07-09T05:53:56;1.55;;;1.25;;
78563;SDS011;67856;47.754;19.088;2023-07-09T05:56:58;1.35;;;1.25;;
78563;SDS011;67856;47.754;19.088;2023-07-09T06:00:01;1.30;;;1.00;;
78563;SDS011;67856;47.754;19.088;2023-07-09T06:03:14;1.42;;;1.10;;
78563;SDS011;67856;47.754;19.088;2023-07-09T06:06:16;1.40;;;1.27;;
78563;SDS011;67856;47.754;19.088;2023-07-09T06:09:19;1.50;;;1.40;;
78563;SDS011;67856;47.754;19.088;2023-07-09T06:12:21;1.63;;;1.40;;
78563;SDS011;67856;47.754;19.088;2023-07-09T06:15:27;1.07;;;0.97;;
78563;SDS011;67856;47.754;19.088;2023-07-09T06:18:29;1.40;;;1.20;;
78563;SDS011;67856;47.754;19.088;2023-07-09T06:21:32;1.40;;;1.30;;
78563;SDS011;67856;47.754;19.088;2023-07-09T06:24:34;1.42;;;1.23;;
78563;SDS011;67856;47.754;19.088;2023-07-09T06:27:37;1.30;;;1.20;;
78563;SDS011;67856;47.754;19.088;2023-07-09T06:30:39;1.50;;;1.10;;
78563;SDS011;67856;47.754;19.088;2023-07-09T06:33:42;1.70;;;1.20;;
78563;SDS011;67856;47.754;19.088;2023-07-09T06:36:44;1.15;;;1.05;;
78563;SDS011;67856;47.754;19.088;2023-07-09T06:39:47;1.20;;;1.10;;
78563;SDS011;67856;47.754;19.088;2023-07-09T06:42:49;1.17;;;1.08;;
78563;SDS011;67856;47.754;19.088;2023-07-09T06:45:59;1.30;;;1.20;;
78563;SDS011;67856;47.754;19.088;2023-07-09T06:49:03;1.58;;;1.27;;
78563;SDS011;67856;47.754;19.088;2023-07-09T06:52:09;1.27;;;1.17;;
78563;SDS011;67856;47.754;19.088;2023-07-09T06:55:11;1.45;;;1.10;;
78563;SDS011;67856;47.754;19.088;2023-07-09T06:58:15;1.10;;;1.00;;
78563;SDS011;67856;47.754;19.088;2023-07-09T07:01:18;1.40;;;1.10;;
78563;SDS011;67856;47.754;19.088;2023-07-09T07:04:23;1.40;;;1.30;;
78563;SDS011;67856;47.754;19.088;2023-07-09T07:07:27;1.30;;;1.20;;
78563;SDS011;67856;47.754;19.088;2023-07-09T07:10:30;1.17;;;1.08;;
78563;SDS011;67856;47.754;19.088;2023-07-09T07:13:34;1.40;;;1.27;;
78563;SDS011;67856;47.754;19.088;2023-07-09T07:16:37;1.20;;;1.10;;
78563;SDS011;67856;47.754;19.088;2023-07-09T07:19:40;1.23;;;1.13;;
78563;SDS011;67856;47.754;19.088;2023-07-09T07:22:42;1.25;;;1.10;;
78563;SDS011;67856;47.754;19.088;2023-07-09T07:25:45;1.42;;;1.00;;
78563;SDS011;67856;47.754;19.088;2023-07-09T07:28:48;1.50;;;1.40;;
78563;SDS011;67856;47.754;19.088;2023-07-09T07:31:53;1.23;;;1.13;;
78563;SDS011;67856;47.754;19.088;2023-07-09T07:34:56;1.20;;;1.10;;
78563;SDS011;67856;47.754;19.088;2023-07-09T07:37:58;1.20;;;1.10;;
78563;SDS011;67856;47.754;19.088;2023-07-09T07:41:01;1.27;;;1.17;;
78563;SDS011;67856;47.754;19.088;2023-07-09T07:44:04;1.10;;;0.95;;
78563;SDS011;67856;47.754;19.088;2023-07-09T07:47:06;1.00;;;0.90;;
78563;SDS011;67856;47.754;19.088;2023-07-09T07:50:09;1.23;;;1.10;;
78563;SDS011;67856;47.754;19.088;2023-07-09T07:53:12;1.13;;;1.02;;
78563;SDS011;67856;47.754;19.088;2023-07-09T07:56:15;1.38;;;1.25;;
78563;SDS011;67856;47.754;19.088;2023-07-09T07:59:18;1.40;;;1.10;;
78563;SDS011;67856;47.754;19.088;2023-07-09T08:02:21;1.10;;;1.00;;
78563;SDS011;67856;47.754;19.088;2023-07-09T08:05:23;1.20;;;1.10;;
78563;SDS011;67856;47.754;19.088;2023-07-09T08:08:26;1.30;;;1.10;;
78563;SDS011;67856;47.754;19.088;2023-07-09T08:11:29;1.10;;;1.00;;
78563;SDS011;67856;47.754;19.088;2023-07-09T08:14:34;1.10;;;1.00;;
78563;SDS011;67856;47.754;19.088;2023-07-09T08:17:38;1.20;;;1.10;;
78563;SDS011;67856;47.754;19.088;2023-07-09T08:20:44;1.23;;;1.13;;
78563;SDS011;67856;47.754;19.088;2023-07-09T08:23:47;1.30;;;1.20;;
78563;SDS011;67856;47.754;19.088;2023-07-09T08:26:49;1.20;;;1.10;;
78563;SDS011;67856;47.754;19.088;2023-07-09T08:29:51;1.20;;;1.10;;
78563;SDS011;67856;47.754;19.088;2023-07-09T08:32:54;1.10;;;1.00;;
78563;SDS011;67856;47.754;19.088;2023-07-09T08:35:57;1.10;;;1.00;;
78563;SDS011;67856;47.754;19.088;2023-07-09T08:39:00;1.30;;;1.20;;
78563;SDS011;67856;47.754;19.088;2023-07-09T08:42:06;1.30;;;1.20;;
78563;SDS011;67856;47.754;19.088;2023-07-09T08:45:18;1.20;;;1.10;;
78563;SDS011;67856;47.754;19.088;2023-07-09T08:48:33;1.20;;;1.10;;
78563;SDS011;67856;47.754;19.088;2023-07-09T08:51:37;1.30;;;1.20;;
78563;SDS011;67856;47.754;19.088;2023-07-09T08:54:41;1.20;;;1.10;;
78563;SDS011;67856;47.754;19.088;2023-07-09T08:57:45;1.15;;;1.02;;
78563;SDS011;67856;47.754;19.088;2023-07-09T09:04:21;1.00;;;0.90;;
78563;SDS011;67856;47.754;19.088;2023-07-09T09:10:48;1.20;;;1.10;;
78563;SDS011;67856;47.754;19.088;2023-07-09T09:13:56;1.48;;;1.20;;
78563;SDS011;67856;47.754;19.088;2023-07-09T09:17:03;1.15;;;1.05;;
78563;SDS011;67856;47.754;19.088;2023-07-09T09:20:15;1.20;;;1.10;;
78563;SDS011;67856;47.754;19.088;2023-07-09T09:23:19;1.08;;;0.98;;
78563;SDS011;67856;47.754;19.088;2023-07-09T09:26:23;1.20;;;1.00;;
78563;SDS011;67856;47.754;19.088;2023-07-09T09:29:31;1.23;;;1.10;;
78563;SDS011;67856;47.754;19.088;2023-07-09T09:32:41;1.20;;;1.10;;
78563;SDS011;67856;47.754;19.088;2023-07-09T09:35:45;1.20;;;1.10;;
78563;SDS011;67856;47.754;19.088;2023-07-09T09:38:50;1.10;;;1.00;;
78563;SDS011;67856;47.754;19.088;2023-07-09T09:41:53;1.35;;;1.20;;
78563;SDS011;67856;47.754;19.088;2023-07-09T09:44:57;1.42;;;1.33;;
78563;SDS011;67856;47.754;19.088;2023-07-09T09:48:00;1.27;;;1.00;;
78563;SDS011;67856;47.754;19.088;2023-07-09T09:51:04;1.20;;;1.10;;
78563;SDS011;67856;47.754;19.088;2023-07-09T09:54:11;1.23;;;1.13;;
78563;SDS011;67856;47.754;19.088;2023-07-09T09:57:19;1.10;;;1.00;;
78563;SDS011;67856;47.754;19.088;2023-07-09T10:00:27;1.30;;;1.20;;
78563;SDS011;67856;47.754;19.088;2023-07-09T10:03:34;1.30;;;1.20;;
78563;SDS011;67856;47.754;19.088;2023-07-09T10:06:40;1.10;;;1.00;;
78563;SDS011;67856;47.754;19.088;2023-07-09T10:09:46;1.23;;;1.13;;
78563;SDS011;67856;47.754;19.088;2023-07-09T10:12:52;1.30;;;1.20;;
78563;SDS011;67856;47.754;19.088;2023-07-09T10:22:37;1.20;;;1.10;;
78563;SDS011;67856;47.754;19.088;2023-07-09T10:25:46;1.50;;;1.30;;
78563;SDS011;67856;47.754;19.088;2023-07-09T10:36:23;1.30;;;1.20;;
78563;SDS011;67856;47.754;19.088;2023-07-09T10:39:49;1.50;;;1.40;;
78563;SDS011;67856;47.754;19.088;2023-07-09T10:42:54;1.42;;;1.25;;
78563;SDS011;67856;47.754;19.088;2023-07-09T10:46:02;1.50;;;1.30;;
78563;SDS011;67856;47.754;19.088;2023-07-09T10:49:12;1.20;;;1.10;;
78563;SDS011;67856;47.754;19.088;2023-07-09T10:52:23;1.20;;;1.10;;
78563;SDS011;67856;47.754;19.088;2023-07-09T10:55:33;1.40;;;1.30;;
78563;SDS011;67856;47.754;19.088;2023-07-09T10:58:45;1.27;;;1.17;;
78563;SDS011;67856;47.754;19.088;2023-07-09T11:01:57;1.40;;;1.20;;
78563;SDS011;67856;47.754;19.088;2023-07-09T11:05:21;1.23;;;1.10;;
78563;SDS011;67856;47.754;19.088;2023-07-09T11:08:27;1.20;;;1.10;;
78563;SDS011;67856;47.754;19.088;2023-07-09T11:11:43;1.20;;;1.03;;
78563;SDS011;67856;47.754;19.088;2023-07-09T11:14:50;1.25;;;1.15;;
78563;SDS011;67856;47.754;19.088;2023-07-09T11:17:56;1.33;;;1.23;;
78563;SDS011;67856;47.754;19.088;2023-07-09T11:21:16;1.20;;;1.10;;
78563;SDS011;67856;47.754;19.088;2023-07-09T11:25:04;1.30;;;1.20;;
78563;SDS011;67856;47.754;19.088;2023-07-09T11:28:02;1.60;;;1.10;;
78563;SDS011;67856;47.754;19.088;2023-07-09T11:31:07;1.15;;;1.05;;
78563;SDS011;67856;47.754;19.088;2023-07-09T11:37:16;1.30;;;1.20;;
78563;SDS011;67856;47.754;19.088;2023-07-09T11:40:19;1.20;;;1.10;;
78563;SDS011;67856;47.754;19.088;2023-07-09T11:43:33;1.20;;;1.10;;
78563;SDS011;67856;47.754;19.088;2023-07-09T11:46:37;1.10;;;1.00;;
78563;SDS011;67856;47.754;19.088;2023-07-09T11:56:22;1.30;;;1.20;;
78563;SDS011;67856;47.754;19.088;2023-07-09T11:59:26;1.30;;;1.20;;
78563;SDS011;67856;47.754;19.088;2023-07-09T12:02:30;1.10;;;1.00;;
78563;SDS011;67856;47.754;19.088;2023-07-09T12:05:35;1.50;;;1.40;;
78563;SDS011;67856;47.754;19.088;2023-07-09T12:08:38;1.48;;;1.20;;
78563;SDS011;67856;47.754;19.088;2023-07-09T12:11:45;1.30;;;1.20;;
78563;SDS011;67856;47.754;19.088;2023-07-09T12:14:49;1.20;;;1.10;;
78563;SDS011;67856;47.754;19.088;2023-07-09T12:17:53;1.30;;;1.20;;
78563;SDS011;67856;47.754;19.088;2023-07-09T12:21:00;1.20;;;1.10;;
78563;SDS011;67856;47.754;19.088;2023-07-09T12:24:12;1.30;;;1.20;;
78563;SDS011;67856;47.754;19.088;2023-07-09T12:27:21;1.23;;;1.10;;
78563;SDS011;67856;47.754;19.088;2023-07-09T12:30:25;1.23;;;1.10;;
78563;SDS011;67856;47.754;19.088;2023-07-09T12:33:29;1.10;;;1.00;;
78563;SDS011;67856;47.754;19.088;2023-07-09T12:36:32;1.35;;;1.25;;
78563;SDS011;67856;47.754;19.088;2023-07-09T12:39:38;1.23;;;1.13;;
78563;SDS011;67856;47.754;19.088;2023-07-09T12:42:40;2.60;;;2.28;;
78563;SDS011;67856;47.754;19.088;2023-07-09T12:45:44;1.50;;;1.10;;
78563;SDS011;67856;47.754;19.088;2023-07-09T12:48:46;1.20;;;1.10;;
78563;SDS011;67856;47.754;19.088;2023-07-09T12:51:50;1.38;;;1.27;;
78563;SDS011;67856;47.754;19.088;2023-07-09T12:54:57;1.88;;;1.02;;
78563;SDS011;67856;47.754;19.088;2023-07-09T12:58:00;1.10;;;1.00;;
78563;SDS011;67856;47.754;19.088;2023-07-09T13:01:11;1.30;;;0.90;;
78563;SDS011;67856;47.754;19.088;2023-07-09T13:04:16;1.10;;;1.00;;
78563;SDS011;67856;47.754;19.088;2023-07-09T13:10:26;1.20;;;1.10;;
78563;SDS011;67856;47.754;19.088;2023-07-09T13:13:30;1.17;;;1.08;;
78563;SDS011;67856;47.754;19.088;2023-07-09T13:16:39;1.10;;;1.00;;
78563;SDS011;67856;47.754;19.088;2023-07-09T13:19:47;1.20;;;1.10;;
78563;SDS011;67856;47.754;19.088;2023-07-09T13:22:50;1.27;;;1.17;;
78563;SDS011;67856;47.754;19.088;2023-07-09T13:25:53;1.20;;;1.10;;
78563;SDS011;67856;47.754;19.088;2023-07-09T13:28:58;1.20;;;1.10;;
78563;SDS011;67856;47.754;19.088;2023-07-09T13:32:01;1.30;;;1.00;;
78563;SDS011;67856;47.754;19.088;2023-07-09T13:35:08;1.30;;;1.05;;
78563;SDS011;67856;47.754;19.088;2023-07-09T13:38:16;1.20;;;1.10;;
78563;SDS011;67856;47.754;19.088;2023-07-09T13:41:20;1.20;;;1.10;;
78563;SDS011;67856;47.754;19.088;2023-07-09T13:44:26;1.20;;;1.10;;
78563;SDS011;67856;47.754;19.088;2023-07-09T13:47:30;1.17;;;1.00;;
78563;SDS011;67856;47.754;19.088;2023-07-09T13:50:35;1.10;;;1.00;;
78563;SDS011;67856;47.754;19.088;2023-07-09T13:53:37;1.30;;;1.20;;
78563;SDS011;67856;47.754;19.088;2023-07-09T13:56:40;1.50;;;1.20;;
78563;SDS011;67856;47.754;19.088;2023-07-09T13:59:43;1.35;;;1.25;;
78563;SDS011;67856;47.754;19.088;2023-07-09T14:02:46;1.20;;;1.07;;
78563;SDS011;67856;47.754;19.088;2023-07-09T14:05:49;1.13;;;1.00;;
78563;SDS011;67856;47.754;19.088;2023-07-09T14:08:51;1.25;;;1.13;;
78563;SDS011;67856;47.754;19.088;2023-07-09T14:11:54;1.30;;;1.20;;
78563;SDS011;67856;47.754;19.088;2023-07-09T14:14:58;1.10;;;1.00;;
78563;SDS011;67856;47.754;19.088;2023-07-09T14:18:02;1.10;;;1.00;;
78563;SDS011;67856;47.754;19.088;2023-07-09T14:21:15;1.27;;;1.17;;
78563;SDS011;67856;47.754;19.088;2023-07-09T14:24:24;1.30;;;1.15;;
78563;SDS011;67856;47.754;19.088;2023-07-09T14:27:31;1.20;;;1.10;;
78563;SDS011;67856;47.754;19.088;2023-07-09T14:30:33;1.48;;;1.38;;
78563;SDS011;67856;47.754;19.088;2023-07-09T14:33:36;1.20;;;1.10;;
78563;SDS011;67856;47.754;19.088;2023-07-09T14:36:39;1.02;;;0.93;;
78563;SDS011;67856;47.754;19.088;2023-07-09T14:39:41;1.10;;;1.00;;
78563;SDS011;67856;47.754;19.088;2023-07-09T14:42:44;1.30;;;1.20;;
78563;SDS011;67856;47.754;19.088;2023-07-09T14:45:47;1.40;;;1.30;;
78563;SDS011;67856;47.754;19.088;2023-07-09T14:48:50;1.20;;;1.10;;
78563;SDS011;67856;47.754;19.088;2023-07-09T14:51:53;1.33;;;1.10;;
78563;SDS011;67856;47.754;19.088;2023-07-09T14:54:56;1.25;;;1.15;;
78563;SDS011;67856;47.754;19.088;2023-07-09T14:57:58;1.30;;;1.20;;
78563;SDS011;67856;47.754;19.088;2023-07-09T15:01:02;1.30;;;1.20;;
78563;SDS011;67856;47.754;19.088;2023-07-09T15:07:23;1.27;;;1.17;;
78563;SDS011;67856;47.754;19.088;2023-07-09T15:10:31;1.40;;;1.20;;
78563;SDS011;67856;47.754;19.088;2023-07-09T15:13:34;1.50;;;1.20;;
78563;SDS011;67856;47.754;19.088;2023-07-09T15:16:38;1.10;;;1.00;;
78563;SDS011;67856;47.754;19.088;2023-07-09T15:19:40;1.10;;;1.00;;
78563;SDS011;67856;47.754;19.088;2023-07-09T15:22:43;1.33;;;1.10;;
78563;SDS011;67856;47.754;19.088;2023-07-09T15:25:46;1.30;;;1.20;;
78563;SDS011;67856;47.754;19.088;2023-07-09T15:28:48;1.20;;;1.10;;
78563;SDS011;67856;47.754;19.088;2023-07-09T15:31:52;1.38;;;1.27;;
78563;SDS011;67856;47.754;19.088;2023-07-09T15:34:54;1.10;;;1.00;;
78563;SDS011;67856;47.754;19.088;2023-07-09T15:37:57;1.30;;;1.20;;
78563;SDS011;67856;47.754;19.088;2023-07-09T15:40:59;1.30;;;1.20;;
78563;SDS011;67856;47.754;19.088;2023-07-09T15:44:03;1.20;;;1.10;;
78563;SDS011;67856;47.754;19.088;2023-07-09T15:47:05;1.27;;;1.17;;
78563;SDS011;67856;47.754;19.088;2023-07-09T15:50:27;1.20;;;1.10;;
78563;SDS011;67856;47.754;19.088;2023-07-09T15:53:30;1.10;;;1.00;;
78563;SDS011;67856;47.754;19.088;2023-07-09T15:56:33;1.20;;;1.10;;
78563;SDS011;67856;47.754;19.088;2023-07-09T15:59:36;1.10;;;1.00;;
78563;SDS011;67856;47.754;19.088;2023-07-09T16:02:39;1.27;;;1.17;;
78563;SDS011;67856;47.754;19.088;2023-07-09T16:05:41;1.10;;;1.00;;
78563;SDS011;67856;47.754;19.088;2023-07-09T16:08:45;1.40;;;1.30;;
78563;SDS011;67856;47.754;19.088;2023-07-09T16:11:49;1.40;;;1.27;;
78563;SDS011;67856;47.754;19.088;2023-07-09T16:14:52;1.20;;;1.10;;
78563;SDS011;67856;47.754;19.088;2023-07-09T16:17:54;1.13;;;1.00;;
78563;SDS011;67856;47.754;19.088;2023-07-09T16:20:57;1.23;;;1.13;;
78563;SDS011;67856;47.754;19.088;2023-07-09T16:24:00;1.10;;;1.00;;
78563;SDS011;67856;47.754;19.088;2023-07-09T16:27:05;1.20;;;1.10;;
78563;SDS011;67856;47.754;19.088;2023-07-09T16:30:12;0.95;;;0.85;;
78563;SDS011;67856;47.754;19.088;2023-07-09T16:33:20;1.20;;;1.10;;
78563;SDS011;67856;47.754;19.088;2023-07-09T16:36:23;1.10;;;1.00;;
78563;SDS011;67856;47.754;19.088;2023-07-09T16:39:27;1.05;;;0.95;;
78563;SDS011;67856;47.754;19.088;2023-07-09T16:42:31;1.10;;;1.00;;
78563;SDS011;67856;47.754;19.088;2023-07-09T16:45:34;1.10;;;1.00;;
78563;SDS011;67856;47.754;19.088;2023-07-09T16:48:36;1.38;;;1.20;;
78563;SDS011;67856;47.754;19.088;2023-07-09T16:51:39;1.20;;;0.90;;
78563;SDS011;67856;47.754;19.088;2023-07-09T16:54:41;1.20;;;1.10;;
78563;SDS011;67856;47.754;19.088;2023-07-09T16:57:44;1.27;;;1.17;;
78563;SDS011;67856;47.754;19.088;2023-07-09T17:00:46;1.15;;;1.05;;
78563;SDS011;67856;47.754;19.088;2023-07-09T17:03:49;1.27;;;1.17;;
78563;SDS011;67856;47.754;19.088;2023-07-09T17:06:53;1.30;;;1.20;;
78563;SDS011;67856;47.754;19.088;2023-07-09T17:09:56;1.55;;;1.20;;
78563;SDS011;67856;47.754;19.088;2023-07-09T17:13:00;1.20;;;1.10;;
78563;SDS011;67856;47.754;19.088;2023-07-09T17:16:03;1.30;;;1.10;;
78563;SDS011;67856;47.754;19.088;2023-07-09T17:19:09;1.30;;;1.20;;
78563;SDS011;67856;47.754;19.088;2023-07-09T17:22:26;1.10;;;1.00;;
78563;SDS011;67856;47.754;19.088;2023-07-09T17:25:34;1.20;;;1.10;;
78563;SDS011;67856;47.754;19.088;2023-07-09T17:28:38;1.30;;;1.20;;
78563;SDS011;67856;47.754;19.088;2023-07-09T17:31:41;1.10;;;0.93;;
78563;SDS011;67856;47.754;19.088;2023-07-09T17:34:43;1.30;;;1.20;;
78563;SDS011;67856;47.754;19.088;2023-07-09T17:37:47;1.30;;;1.20;;
78563;SDS011;67856;47.754;19.088;2023-07-09T17:40:52;1.30;;;1.20;;
78563;SDS011;67856;47.754;19.088;2023-07-09T17:43:55;1.20;;;1.10;;
78563;SDS011;67856;47.754;19.088;2023-07-09T17:46:57;1.30;;;1.20;;
78563;SDS011;67856;47.754;19.088;2023-07-09T17:50:00;1.40;;;1.20;;
78563;SDS011;67856;47.754;19.088;2023-07-09T17:53:04;1.30;;;1.20;;
78563;SDS011;67856;47.754;19.088;2023-07-09T17:56:16;1.48;;;1.20;;
78563;SDS011;67856;47.754;19.088;2023-07-09T17:59:22;1.30;;;1.20;;
78563;SDS011;67856;47.754;19.088;2023-07-09T18:02:26;1.10;;;1.00;;
78563;SDS011;67856;47.754;19.088;2023-07-09T18:05:30;1.40;;;1.30;;
78563;SDS011;67856;47.754;19.088;2023-07-09T18:08:34;1.10;;;1.00;;
78563;SDS011;67856;47.754;19.088;2023-07-09T18:11:36;1.17;;;1.00;;
78563;SDS011;67856;47.754;19.088;2023-07-09T18:14:41;1.00;;;0.90;;
78563;SDS011;67856;47.754;19.088;2023-07-09T18:17:45;1.10;;;1.00;;
78563;SDS011;67856;47.754;19.088;2023-07-09T18:20:48;1.20;;;1.10;;
78563;SDS011;67856;47.754;19.088;2023-07-09T18:23:51;1.37;;;1.27;;
78563;SDS011;67856;47.754;19.088;2023-07-09T18:26:54;1.10;;;1.00;;
78563;SDS011;67856;47.754;19.088;2023-07-09T18:29:57;2.00;;;1.40;;
78563;SDS011;67856;47.754;19.088;2023-07-09T18:33:01;1.30;;;1.20;;
78563;SDS011;67856;47.754;19.088;2023-07-09T18:36:05;1.88;;;1.30;;
78563;SDS011;67856;47.754;19.088;2023-07-09T18:39:07;1.27;;;1.17;;
78563;SDS011;67856;47.754;19.088;2023-07-09T18:42:14;1.80;;;1.60;;
78563;SDS011;67856;47.754;19.088;2023-07-09T18:45:18;2.00;;;1.80;;
78563;SDS011;67856;47.754;19.088;2023-07-09T18:48:22;2.20;;;1.55;;
78563;SDS011;67856;47.754;19.088;2023-07-09T18:51:30;1.38;;;1.27;;